MST,Max TemperatureF,Mean TemperatureF,Min TemperatureF,Max Dew PointF,MeanDew PointF,Min DewpointF,Max Humidity, Mean Humidity, Min Humidity, Max Sea Level PressureIn, Mean Sea Level PressureIn, Min Sea Level PressureIn, Max VisibilityMiles, Mean VisibilityMiles, Min VisibilityMiles, Max Wind SpeedMPH, Mean Wind SpeedMPH, Max Gust SpeedMPH,PrecipitationIn, CloudCover, Events, WindDirDegrees
2011-11-1,47,34,20,27,19,15,77,54,31,29.97,29.82,29.64,10,9,2,25,7,32,0.01,3,Snow,227
2011-11-2,29,15,0,27,13,-1,100,81,62,30.50,30.11,29.62,10,5,0,21,7,28,0.29,6,Fog-Snow,271
2011-11-3,41,21,0,15,6,-4,79,55,30,30.50,30.27,30.01,10,10,9,9,3,12,0.00,0,,130
2011-11-4,44,28,11,23,14,1,75,52,29,30.00,29.79,29.57,10,10,10,24,8,32,0.00,2,,177
2011-11-5,35,25,15,28,20,8,100,76,51,29.72,29.48,29.15,10,5,0,26,12,35,0.10,7,Fog-Snow,290
2011-11-6,28,19,10,10,7,4,83,61,39,30.00,29.82,29.60,10,10,10,17,4,21,0.00,3,,34
2011-11-7,26,16,6,18,13,5,84,73,62,30.03,29.93,29.83,10,9,2,21,7,24,T,6,Snow,107
2011-11-8,26,17,7,11,7,3,91,71,50,30.32,30.12,29.92,10,10,5,18,7,23,T,4,Snow,41
2011-11-9,29,16,3,5,-2,-8,86,54,21,30.56,30.45,30.32,10,10,10,20,9,25,0.00,0,,48
2011-11-10,36,20,4,-5,-10,-18,60,37,13,30.56,30.36,30.08,10,10,9,22,7,28,0.00,0,,34
2011-11-11,44,31,18,0,-13,-25,32,20,7,30.10,29.88,29.62,10,10,10,15,6,20,0.00,0,,20
2011-11-12,38,32,26,21,15,0,81,55,28,29.82,29.62,29.49,10,9,2,26,12,46,T,7,Snow,329
2011-11-13,31,26,21,25,19,12,96,75,53,29.84,29.67,29.51,10,5,0,31,12,44,0.14,8,Fog-Snow,348
2011-11-14,30,25,20,16,8,1,67,49,31,29.85,29.75,29.69,10,10,2,24,13,33,T,3,Snow,333
2011-11-15,29,25,20,21,16,5,81,62,42,29.99,29.88,29.72,10,6,1,28,10,37,0.02,7,Snow,345
2011-11-16,23,16,8,18,6,-12,84,53,22,30.34,30.08,29.89,10,7,0,20,9,28,0.03,5,Fog-Snow,24
2011-11-17,38,27,16,6,0,-13,47,34,21,30.21,30.00,29.77,10,10,10,18,8,29,0.00,1,,45
2011-11-18,40,27,14,10,6,3,59,42,25,29.77,29.61,29.35,10,10,10,24,10,32,0.00,0,,196
2011-11-19,32,29,25,20,16,9,69,53,36,29.75,29.58,29.30,10,9,5,23,9,28,T,8,Snow,215
2011-11-20,37,29,20,16,12,7,68,53,38,30.00,29.86,29.74,10,10,10,20,7,26,0.00,6,,198
2011-11-21,34,24,14,23,17,9,88,69,49,30.16,30.01,29.90,10,8,1,15,4,20,0.01,6,Snow,359
2011-11-22,35,25,15,20,16,11,81,61,41,30.34,30.20,30.04,10,9,2,20,9,25,T,5,Snow,8
2011-11-23,48,30,12,11,4,-4,80,47,13,30.38,30.24,30.03,10,10,10,16,4,21,0.00,0,,31
2011-11-24,48,30,12,13,2,-6,61,37,12,30.14,29.97,29.76,10,10,10,18,4,23,0.00,2,,165
2011-11-25,31,21,11,24,17,7,96,72,47,30.09,29.92,29.70,10,5,0,29,11,45,0.04,7,Fog-Snow,5
2011-11-26,22,13,3,7,-3,-10,83,54,25,30.72,30.42,30.10,10,8,1,26,12,33,T,3,Snow,31
2011-11-27,41,25,8,8,3,-11,54,40,25,30.63,30.47,30.34,10,10,10,17,10,22,0.00,0,,47
2011-11-28,44,29,14,9,5,1,56,38,19,30.40,30.27,30.14,10,10,10,17,6,22,0.00,1,,52
2011-11-29,40,29,17,12,9,4,62,45,27,30.30,30.21,30.11,10,10,10,17,6,20,0.00,1,,41
2011-11-30,43,29,15,10,3,-5,55,36,16,30.06,29.84,29.67,10,10,10,16,6,22,0.00,1,,44